Time;durP1;ratioP1;P1;durP2;ratioP2;P2;SDS_P1;SDS_P2;PMS_P1;PMS_P2;Temp;Humidity;BMP_temperature;BMP_pressure;BME280_temperature;BME280_humidity;BME280_pressure;Samples;Min_cycle;Max_cycle;Signal;HPM_P1;HPM_P2
2021/06/01 00:00:31;;;;;;;2.42;2.22;;;;;;;15.73;62.44;100498.50;461856;113;924832;-74
2021/06/01 00:01:37;;;;;;;2.54;2.15;;;;;;;15.73;62.39;100493.00;461404;113;922842;-73
2021/06/01 00:02:42;;;;;;;2.52;2.31;;;;;;;15.68;62.38;100495.67;462007;114;926165;-73
2021/06/01 00:03:47;;;;;;;4.17;2.42;;;;;;;15.63;62.51;100490.09;461980;113;923268;-72
2021/06/01 00:04:51;;;;;;;4.91;2.14;;;;;;;15.58;62.72;100493.59;461714;112;922744;-75
2021/06/01 00:05:55;;;;;;;2.55;2.28;;;;;;;15.56;62.84;100493.00;461975;114;932027;-72
2021/06/01 00:06:59;;;;;;;3.18;2.88;;;;;;;15.55;62.92;100493.27;461545;114;923827;-76
2021/06/01 00:08:04;;;;;;;3.44;2.49;;;;;;;15.53;62.95;100499.02;462323;113;922558;-74
2021/06/01 00:09:10;;;;;;;3.11;2.91;;;;;;;15.52;63.09;100497.34;461378;113;926710;-75
2021/06/01 00:10:15;;;;;;;2.88;2.63;;;;;;;15.52;63.17;100500.09;462261;113;925498;-74
2021/06/01 00:11:19;;;;;;;2.86;2.66;;;;;;;15.52;63.23;100497.34;460227;113;924386;-75
2021/06/01 00:12:23;;;;;;;3.02;2.54;;;;;;;15.51;63.34;100492.89;446007;116;924019;-74
2021/06/01 00:13:27;;;;;;;5.92;2.42;;;;;;;15.52;63.45;100497.34;446185;116;924060;-75
2021/06/01 00:14:31;;;;;;;2.81;2.60;;;;;;;15.53;63.53;100489.93;445327;116;924778;-72
2021/06/01 00:15:35;;;;;;;2.62;2.46;;;;;;;15.54;63.65;100488.85;445877;118;926801;-74
2021/06/01 00:16:41;;;;;;;2.86;2.51;;;;;;;15.53;63.70;100488.02;445511;116;922608;-73
2021/06/01 00:17:45;;;;;;;3.49;3.29;;;;;;;15.53;63.66;100487.19;444869;116;924071;-74
2021/06/01 00:18:50;;;;;;;3.14;2.81;;;;;;;15.50;63.66;100496.71;445838;116;933502;-72
2021/06/01 00:19:54;;;;;;;5.98;2.94;;;;;;;15.43;63.69;100487.82;444669;118;924279;-72
2021/06/01 00:20:58;;;;;;;3.16;2.89;;;;;;;15.37;63.88;100497.89;444772;117;924392;-76
2021/06/01 00:22:02;;;;;;;2.86;2.66;;;;;;;15.32;64.10;100489.56;444925;116;930885;-76
2021/06/01 00:23:06;;;;;;;3.21;2.94;;;;;;;15.29;64.25;100484.55;445121;118;930810;-75
2021/06/01 00:24:11;;;;;;;4.18;2.85;;;;;;;15.27;64.36;100489.45;439631;118;923449;-72
2021/06/01 00:25:15;;;;;;;3.49;3.21;;;;;;;15.28;64.48;100487.53;440863;118;922888;-71
2021/06/01 00:26:21;;;;;;;3.88;3.04;;;;;;;15.28;64.53;100485.63;437503;118;923399;-72
2021/06/01 00:27:25;;;;;;;4.54;3.56;;;;;;;15.30;64.55;100483.47;447132;116;922381;-73
2021/06/01 00:28:29;;;;;;;2.85;2.65;;;;;;;15.29;64.51;100481.80;446176;116;923635;-74
2021/06/01 00:29:33;;;;;;;3.78;3.47;;;;;;;15.28;64.60;100477.38;444778;116;922553;-75
2021/06/01 00:30:40;;;;;;;3.43;3.18;;;;;;;15.25;64.54;100475.14;445247;116;923071;-73
2021/06/01 00:31:45;;;;;;;3.89;3.46;;;;;;;15.21;64.64;100479.48;445264;118;923658;-74
2021/06/01 00:32:49;;;;;;;4.12;3.74;;;;;;;15.16;64.74;100471.12;437715;118;923930;-76
2021/06/01 00:33:53;;;;;;;5.79;3.52;;;;;;;15.10;64.98;100476.79;437175;119;925954;-76
2021/06/01 00:34:57;;;;;;;4.10;3.42;;;;;;;15.05;65.17;100472.02;438015;119;931862;-74
2021/06/01 00:36:01;;;;;;;3.58;3.29;;;;;;;15.02;65.40;100470.61;438159;118;922578;-74
2021/06/01 00:37:06;;;;;;;3.93;3.45;;;;;;;14.98;65.41;100474.10;438281;118;930421;-75
2021/06/01 00:38:09;;;;;;;4.19;3.89;;;;;;;14.92;65.55;100472.34;438205;119;924498;-76
2021/06/01 00:39:13;;;;;;;4.07;3.66;;;;;;;14.85;65.80;100472.48;446228;116;923067;-73
2021/06/01 00:40:19;;;;;;;5.36;3.71;;;;;;;14.83;65.92;100476.56;438374;118;923049;-76
2021/06/01 00:41:22;;;;;;;3.84;3.54;;;;;;;14.82;66.09;100472.98;445197;118;924071;-75
2021/06/01 00:42:26;;;;;;;5.09;3.34;;;;;;;14.81;66.19;100468.56;437099;119;926739;-78
2021/06/01 00:43:30;;;;;;;4.41;4.03;;;;;;;14.82;66.27;100469.41;436400;118;930516;-73
2021/06/01 00:44:34;;;;;;;4.06;3.66;;;;;;;14.83;66.30;100465.59;436950;118;930701;-74
2021/06/01 00:45:38;;;;;;;3.51;3.24;;;;;;;14.82;66.27;100464.75;437140;118;926284;-75
2021/06/01 00:46:43;;;;;;;3.93;3.63;;;;;;;14.83;66.47;100465.59;437233;118;922603;-73
2021/06/01 00:47:48;;;;;;;3.96;3.48;;;;;;;14.85;66.45;100468.90;437947;118;924129;-70
2021/06/01 00:48:52;;;;;;;3.85;3.55;;;;;;;14.85;66.46;100471.64;445217;116;930907;-69
2021/06/01 00:49:56;;;;;;;4.16;3.85;;;;;;;14.85;66.47;100466.16;444190;116;925867;-71
2021/06/01 00:51:00;;;;;;;5.04;3.84;;;;;;;14.86;66.54;100459.59;443749;116;930729;-72
2021/06/01 00:52:04;;;;;;;5.02;3.41;;;;;;;14.88;66.51;100469.27;445149;116;922689;-69
2021/06/01 00:53:08;;;;;;;4.53;3.98;;;;;;;14.90;66.50;100460.76;444542;116;922447;-71
2021/06/01 00:54:12;;;;;;;4.13;3.75;;;;;;;14.92;66.21;100464.94;445718;116;923749;-70
2021/06/01 00:55:16;;;;;;;3.86;3.57;;;;;;;14.92;66.20;100458.61;445553;116;923064;-72
2021/06/01 00:56:22;;;;;;;4.33;4.03;;;;;;;14.92;66.14;100462.19;445391;116;930574;-71
2021/06/01 00:57:25;;;;;;;4.34;3.31;;;;;;;14.91;66.19;100465.17;445865;116;922949;-71
2021/06/01 00:58:30;;;;;;;3.89;3.61;;;;;;;14.91;66.05;100466.01;446579;116;927194;-69
2021/06/01 00:59:34;;;;;;;4.19;3.86;;;;;;;14.91;66.00;100467.92;445809;116;923955;-71
2021/06/01 01:01:47;;;;;;;4.70;3.73;;;;;;;14.87;66.04;100458.52;446462;116;932031;-70
2021/06/01 01:02:50;;;;;;;4.33;4.03;;;;;;;14.86;65.90;100454.94;444100;116;924303;-70
2021/06/01 01:03:55;;;;;;;3.91;3.54;;;;;;;14.86;65.92;100454.10;443960;116;923027;-70
2021/06/01 01:04:59;;;;;;;4.16;3.72;;;;;;;14.86;65.98;100451.36;443369;116;932085;-73
2021/06/01 01:06:33;;;;;;;3.99;3.69;;;;;;;14.87;65.80;100461.27;437836;118;925359;-71
2021/06/01 01:07:34;;;;;;;4.34;3.76;;;;;;;14.85;65.91;100455.17;420352;124;924006;-72
2021/06/01 01:08:49;;;;;;;4.49;4.06;;;;;;;14.84;65.94;100464.48;453007;114;923990;-70
2021/06/01 01:09:50;;;;;;;4.23;3.54;;;;;;;14.83;65.91;100460.09;443833;116;922448;-69
2021/06/01 01:11:02;;;;;;;3.73;3.39;;;;;;;14.83;66.15;100452.66;444277;116;924205;-70
2021/06/01 01:12:26;;;;;;;4.08;3.78;;;;;;;14.84;66.31;100457.08;448085;115;923997;-70
2021/06/01 01:13:37;;;;;;;3.96;3.59;;;;;;;14.86;66.21;100454.10;461221;113;923939;-70
2021/06/01 01:14:42;;;;;;;;;;;;;;;14.87;66.01;100461.27;465572;113;922181;-71
2021/06/01 01:15:50;;;;;;;4.13;3.83;;;;;;;14.87;65.82;100466.75;461853;112;922507;-71
2021/06/01 01:17:00;;;;;;;4.16;3.86;;;;;;;14.85;65.75;100468.90;462103;113;923122;-72
2021/06/01 01:18:11;;;;;;;4.32;3.50;;;;;;;14.83;65.83;100469.13;462267;113;924024;-70
2021/06/01 01:19:16;;;;;;;;;;;;;;;14.84;65.89;100464.48;466098;113;931535;-71
2021/06/01 01:20:38;;;;;;;4.74;3.66;;;;;;;14.85;65.86;100468.90;461700;112;922583;-69
2021/06/01 01:21:51;;;;;;;3.49;3.24;;;;;;;14.85;65.71;100452.42;461604;113;925198;-71
2021/06/01 01:22:58;;;;;;;3.90;3.46;;;;;;;14.83;65.72;100465.59;462162;113;925781;-70
2021/06/01 01:24:23;;;;;;;3.89;3.47;;;;;;;14.83;65.65;100458.16;462977;114;924000;-71
2021/06/01 01:25:42;;;;;;;3.80;3.46;;;;;;;14.83;65.67;100457.35;460960;113;924036;-71
2021/06/01 01:27:01;;;;;;;4.04;3.66;;;;;;;14.85;65.62;100449.69;454171;114;923428;-70
2021/06/01 01:28:10;;;;;;;3.64;3.34;;;;;;;14.86;65.41;100456.84;461010;114;922475;-70
2021/06/01 01:29:36;;;;;;;4.48;3.51;;;;;;;14.86;65.41;100451.36;461320;112;922492;-70
2021/06/01 01:30:48;;;;;;;3.98;3.39;;;;;;;14.87;65.39;100459.35;461892;112;924048;-71
2021/06/01 01:31:55;;;;;;;3.95;3.51;;;;;;;14.88;65.48;100460.19;462384;113;922971;-70
2021/06/01 01:33:03;;;;;;;3.66;3.36;;;;;;;14.89;65.49;100456.34;461032;112;922411;-72
2021/06/01 01:34:08;;;;;;;4.09;2.98;;;;;;;14.89;65.52;100464.58;462628;113;923034;-70
2021/06/01 01:35:15;;;;;;;3.89;3.59;;;;;;;14.90;65.52;100452.52;461798;113;922569;-71
2021/06/01 01:36:21;;;;;;;3.98;3.42;;;;;;;14.92;65.46;100450.37;461947;113;922408;-69
2021/06/01 01:37:26;;;;;;;4.16;3.76;;;;;;;14.94;65.26;100453.72;461875;113;923078;-71
2021/06/01 01:38:31;;;;;;;4.59;3.67;;;;;;;14.96;65.15;100457.03;462102;113;922894;-72
2021/06/01 01:39:45;;;;;;;4.01;3.62;;;;;;;14.97;65.10;100455.95;462167;113;922680;-71
2021/06/01 01:40:46;;;;;;;3.27;2.99;;;;;;;14.97;65.07;100455.95;461533;113;923199;-71
2021/06/01 01:41:50;;;;;;;4.31;3.74;;;;;;;14.98;65.11;100450.23;462015;112;922808;-69
2021/06/01 01:43:01;;;;;;;4.14;3.84;;;;;;;14.99;64.87;100460.14;462349;114;923051;-71
2021/06/01 01:44:04;;;;;;;3.83;3.54;;;;;;;14.99;64.71;100457.39;462582;113;922628;-70
2021/06/01 01:45:12;;;;;;;3.74;3.35;;;;;;;14.99;64.79;100459.30;462183;113;922397;-70
2021/06/01 01:46:36;;;;;;;4.59;4.16;;;;;;;14.99;64.77;100462.05;462885;113;922810;-70
2021/06/01 01:49:01;;;;;;;4.87;4.47;;;;;;;15.01;64.63;100465.36;462336;114;922848;-72
2021/06/01 01:50:08;;;;;;;5.06;4.61;;;;;;;15.02;64.43;100461.54;460481;114;923961;-71
2021/06/01 01:51:15;;;;;;;5.66;5.14;;;;;;;15.00;64.37;100464.52;459903;113;923783;-69
2021/06/01 01:52:19;;;;;;;5.09;4.65;;;;;;;15.00;64.29;100458.19;460816;113;923609;-70
2021/06/01 01:53:23;;;;;;;4.86;4.48;;;;;;;14.99;64.17;100462.88;461025;113;922674;-72
2021/06/01 01:54:31;;;;;;;4.57;4.16;;;;;;;14.98;64.18;100458.46;460649;113;925889;-72
2021/06/01 01:55:35;;;;;;;4.44;4.09;;;;;;;14.97;64.14;100454.05;462036;113;922866;-72
2021/06/01 01:56:43;;;;;;;4.67;4.21;;;;;;;14.96;64.20;100457.03;461595;113;922870;-70
2021/06/01 01:57:48;;;;;;;5.23;4.02;;;;;;;14.96;64.20;100457.03;461367;113;931830;-71
2021/06/01 01:58:52;;;;;;;4.31;3.95;;;;;;;14.95;64.10;100460.84;461963;113;924057;-71
2021/06/01 01:59:57;;;;;;;4.12;3.78;;;;;;;14.96;64.18;100459.77;461688;113;926084;-71
2021/06/01 02:01:01;;;;;;;4.48;3.79;;;;;;;14.96;64.06;100454.28;462244;113;922527;-72
2021/06/01 02:02:10;;;;;;;3.92;3.65;;;;;;;14.94;64.12;100454.52;461994;113;924030;-70
2021/06/01 02:03:14;;;;;;;4.18;3.86;;;;;;;14.93;64.12;100458.38;461935;113;923594;-70
2021/06/01 02:04:20;;;;;;;7.91;3.94;;;;;;;14.94;64.05;100459.20;461489;113;926516;-70
2021/06/01 02:05:25;;;;;;;4.34;4.04;;;;;;;14.92;63.95;100456.70;462583;113;924026;-70
2021/06/01 02:06:31;;;;;;;4.44;4.04;;;;;;;14.90;63.94;100458.02;462063;113;922951;-71
2021/06/01 02:07:35;;;;;;;5.82;4.00;;;;;;;14.88;64.01;100454.70;462471;114;922542;-70
2021/06/01 02:08:41;;;;;;;4.44;4.04;;;;;;;14.87;63.99;100456.61;461755;113;923089;-73
2021/06/01 02:09:45;;;;;;;5.16;4.40;;;;;;;14.85;63.96;100450.52;461689;113;930705;-71
2021/06/01 02:10:49;;;;;;;6.44;5.28;;;;;;;14.82;63.90;100452.94;462497;113;924009;-72
2021/06/01 02:11:53;;;;;;;5.66;4.01;;;;;;;14.75;64.10;100444.84;460715;113;930655;-71
2021/06/01 02:12:57;;;;;;;6.19;4.28;;;;;;;14.72;64.22;100448.06;460763;113;922839;-70
2021/06/01 02:14:03;;;;;;;4.78;4.05;;;;;;;14.70;64.29;100443.91;460648;114;923225;-71
2021/06/01 02:15:08;;;;;;;4.90;4.48;;;;;;;14.69;64.42;100444.98;461343;113;924150;-71
2021/06/01 02:16:13;;;;;;;5.08;4.64;;;;;;;14.69;64.56;100436.75;461071;114;922417;-70
2021/06/01 02:17:16;;;;;;;4.58;4.21;;;;;;;14.71;64.62;100453.81;460719;114;922554;-71
2021/06/01 02:18:20;;;;;;;4.84;4.43;;;;;;;14.72;64.62;100453.55;461064;113;924067;-70
2021/06/01 02:19:24;;;;;;;5.19;4.76;;;;;;;14.74;64.55;100451.41;461399;113;922397;-71
2021/06/01 02:20:29;;;;;;;3.99;3.69;;;;;;;14.77;64.59;100455.58;462108;114;931900;-71
2021/06/01 02:24:26;;;;;;;;;;;;;;;14.84;64.39;100450.75;465793;114;922018;-70
2021/06/01 02:25:33;;;;;;;4.72;4.32;;;;;;;14.87;64.31;100453.03;461576;113;922416;-71
2021/06/01 02:26:57;;;;;;;4.75;4.41;;;;;;;14.85;64.26;100456.01;462037;113;922431;-71
2021/06/01 02:28:17;;;;;;;4.52;4.22;;;;;;;14.84;64.30;100451.59;460793;113;922570;-74
2021/06/01 02:29:29;;;;;;;5.18;4.78;;;;;;;14.84;64.18;100448.84;461826;112;923135;-73
2021/06/01 02:30:54;;;;;;;5.01;4.61;;;;;;;14.82;64.18;100455.68;463063;113;923070;-73
2021/06/01 02:32:00;;;;;;;5.29;4.44;;;;;;;14.81;64.27;100451.27;462006;113;922489;-72
2021/06/01 02:33:05;;;;;;;5.95;5.09;;;;;;;14.81;64.29;100449.35;461931;113;922442;-75
2021/06/01 02:34:12;;;;;;;5.57;4.42;;;;;;;14.83;64.22;100449.12;461200;113;922684;-74
2021/06/01 02:35:34;;;;;;;5.08;4.59;;;;;;;14.83;64.18;100446.38;460747;113;922536;-74
2021/06/01 02:36:40;;;;;;;4.98;4.48;;;;;;;14.84;64.21;100454.34;461203;114;922569;-73
2021/06/01 02:37:46;;;;;;;4.73;4.27;;;;;;;14.87;64.24;100450.28;461372;113;922443;-73
2021/06/01 02:41:05;;;;;;;6.80;5.28;;;;;;;14.91;64.33;100444.05;449416;113;922834;-74
2021/06/01 02:42:10;;;;;;;5.99;5.49;;;;;;;14.93;64.07;100452.05;462013;113;922508;-71
2021/06/01 02:43:14;;;;;;;5.77;4.99;;;;;;;14.94;64.09;100448.23;462639;113;922424;-71
2021/06/01 02:44:18;;;;;;;5.93;5.35;;;;;;;14.95;64.17;100444.37;461819;113;930455;-73
2021/06/01 02:45:24;;;;;;;5.59;5.15;;;;;;;14.96;63.96;100446.05;461939;114;933504;-76
2021/06/01 02:46:28;;;;;;;6.37;5.44;;;;;;;14.95;63.79;100436.97;461678;114;922863;-73
2021/06/01 02:47:32;;;;;;;6.18;5.30;;;;;;;14.95;63.76;100450.70;462144;113;924068;-73
2021/06/01 02:48:36;;;;;;;5.87;5.36;;;;;;;14.95;63.73;100444.37;461489;113;930765;-72
2021/06/01 02:49:40;;;;;;;5.45;5.01;;;;;;;14.93;63.73;100441.91;461366;113;922830;-74
2021/06/01 02:50:48;;;;;;;7.14;5.41;;;;;;;14.95;63.72;100436.14;461956;113;925795;-74
2021/06/01 02:51:54;;;;;;;5.43;4.98;;;;;;;14.93;63.81;100430.92;452748;114;924276;-72
2021/06/01 02:53:01;;;;;;;5.09;4.65;;;;;;;14.93;63.84;100433.66;454677;114;924044;-73
2021/06/01 02:54:07;;;;;;;5.99;5.39;;;;;;;14.94;63.78;100435.30;462320;114;924032;-74
2021/06/01 02:55:14;;;;;;;6.10;5.59;;;;;;;14.95;63.64;100434.23;461305;114;922451;-74
2021/06/01 02:56:21;;;;;;;5.71;5.28;;;;;;;14.95;63.70;100439.72;460775;113;923053;-74
2021/06/01 02:57:25;;;;;;;6.49;5.99;;;;;;;14.95;63.66;100438.89;460950;113;922822;-73
2021/06/01 02:58:28;;;;;;;7.77;5.63;;;;;;;14.95;63.69;100439.72;461878;114;923955;-71
2021/06/01 02:59:32;;;;;;;6.03;5.40;;;;;;;14.97;63.69;100442.23;461268;113;931865;-73
2021/06/01 03:00:38;;;;;;;6.15;5.71;;;;;;;14.97;63.62;100434.83;460693;113;924618;-73
2021/06/01 03:01:42;;;;;;;8.42;6.24;;;;;;;14.96;63.54;100437.81;461217;113;924150;-75
2021/06/01 03:02:50;;;;;;;5.72;5.16;;;;;;;14.95;63.67;100430.65;462586;113;923096;-73
2021/06/01 03:04:06;;;;;;;6.65;5.21;;;;;;;14.94;63.82;100434.50;445283;117;923943;-72
2021/06/01 03:05:10;;;;;;;5.99;5.49;;;;;;;14.95;63.83;100436.14;449649;114;924010;-72
2021/06/01 03:06:17;;;;;;;8.97;5.62;;;;;;;14.96;63.81;100430.41;461878;113;923904;-74
2021/06/01 03:07:28;;;;;;;6.40;5.63;;;;;;;15.10;63.82;100427.36;482202;107;927451;-73
2021/06/01 03:08:39;;;;;;;6.17;5.72;;;;;;;15.00;63.78;100427.99;472608;109;924309;-75
2021/06/01 03:09:48;;;;;;;6.58;6.06;;;;;;;15.00;63.65;100430.73;474347;109;924476;-73
2021/06/01 03:10:57;;;;;;;5.87;5.47;;;;;;;15.00;63.59;100434.31;464153;112;924188;-73
2021/06/01 03:12:03;;;;;;;6.58;5.92;;;;;;;14.99;63.43;100423.61;459044;112;922953;-72
2021/06/01 03:13:07;;;;;;;6.16;5.66;;;;;;;14.98;63.52;100431.01;463959;112;922417;-74
2021/06/01 03:14:13;;;;;;;6.18;5.69;;;;;;;14.97;63.63;100431.25;464144;112;923632;-75
2021/06/01 03:15:22;;;;;;;7.79;6.19;;;;;;;14.98;63.73;100432.92;464728;112;925283;-72
2021/06/01 03:16:33;;;;;;;6.82;6.25;;;;;;;15.00;63.77;100442.55;464208;111;923274;-77
2021/06/01 03:17:42;;;;;;;9.96;6.42;;;;;;;15.01;63.55;100443.39;462401;111;924596;-75
2021/06/01 03:18:48;;;;;;;8.22;6.73;;;;;;;15.00;63.61;100437.06;453609;114;923768;-73
2021/06/01 03:19:54;;;;;;;10.63;7.00;;;;;;;15.01;63.70;100452.47;455948;112;923374;-73
2021/06/01 03:20:58;;;;;;;8.49;7.82;;;;;;;15.00;63.62;100444.47;465016;112;922889;-78
2021/06/01 03:22:02;;;;;;;8.12;7.39;;;;;;;15.00;63.54;100441.72;463645;112;924854;-74
2021/06/01 03:23:07;;;;;;;6.91;6.35;;;;;;;15.00;63.60;100447.21;464148;112;932076;-72
2021/06/01 03:24:11;;;;;;;7.19;6.69;;;;;;;14.99;63.70;100445.57;459653;114;922605;-74
2021/06/01 03:25:15;;;;;;;7.02;6.49;;;;;;;14.99;63.75;100448.31;460945;113;922513;-72
2021/06/01 03:26:21;;;;;;;7.07;6.18;;;;;;;14.98;63.89;100452.97;463415;112;922967;-73
2021/06/01 03:27:24;;;;;;;9.62;6.43;;;;;;;14.99;63.86;100443.66;464867;112;922628;-72
2021/06/01 03:28:28;;;;;;;7.46;6.73;;;;;;;14.99;63.77;100448.31;464633;112;931965;-71
2021/06/01 03:29:32;;;;;;;6.96;6.40;;;;;;;14.97;63.90;100440.31;463720;112;931983;-73
2021/06/01 03:30:37;;;;;;;7.43;6.57;;;;;;;14.97;64.10;100436.73;463353;111;922913;-73
2021/06/01 03:31:41;;;;;;;6.54;5.98;;;;;;;14.96;64.07;100435.06;464762;112;922768;-73
2021/06/01 03:32:45;;;;;;;7.59;6.67;;;;;;;14.95;64.15;100433.39;463780;112;931906;-72
2021/06/01 03:33:53;;;;;;;7.02;6.43;;;;;;;14.93;64.28;100438.31;462323;112;922445;-69
2021/06/01 03:34:57;;;;;;;7.12;6.60;;;;;;;14.93;64.45;100430.08;464654;112;932036;-73
2021/06/01 03:36:03;;;;;;;6.94;6.36;;;;;;;14.93;64.47;100428.17;463394;112;922727;-71
2021/06/01 03:37:06;;;;;;;7.37;6.52;;;;;;;14.93;64.36;100428.17;464031;112;923230;-74
2021/06/01 03:38:12;;;;;;;7.24;6.61;;;;;;;14.94;64.26;100415.28;465287;111;923145;-72
2021/06/01 03:39:16;;;;;;;8.96;6.51;;;;;;;14.93;64.36;100416.36;451840;116;923125;-72
2021/06/01 03:40:22;;;;;;;6.98;6.28;;;;;;;14.92;64.39;100415.52;448383;116;922726;-74
2021/06/01 03:41:26;;;;;;;7.65;6.80;;;;;;;14.92;64.55;100412.77;455760;114;923264;-72
2021/06/01 03:42:30;;;;;;;6.86;6.29;;;;;;;14.93;64.45;100413.61;446278;116;926139;-74
2021/06/01 03:43:34;;;;;;;6.74;6.16;;;;;;;14.93;64.50;100411.70;455283;114;925085;-71
2021/06/01 03:44:41;;;;;;;6.54;6.04;;;;;;;14.93;64.56;100413.61;455596;114;924117;-74
2021/06/01 03:45:44;;;;;;;8.73;6.73;;;;;;;14.95;64.63;100411.43;454929;114;929037;-71
2021/06/01 03:46:49;;;;;;;7.50;6.79;;;;;;;14.95;64.60;100420.50;445139;117;926283;-66
2021/06/01 03:47:54;;;;;;;6.88;6.38;;;;;;;14.95;64.60;100406.77;450025;116;924057;-80
2021/06/01 03:48:58;;;;;;;6.78;6.24;;;;;;;14.96;64.62;100407.61;450547;115;922643;-74
2021/06/01 03:50:03;;;;;;;6.78;6.21;;;;;;;14.97;64.72;100414.77;449874;115;924068;-75
2021/06/01 03:51:07;;;;;;;7.32;6.72;;;;;;;14.96;64.72;100407.61;450020;116;932025;-76
2021/06/01 03:52:11;;;;;;;7.34;6.75;;;;;;;14.96;64.82;100410.36;446978;117;923438;-78
2021/06/01 03:53:15;;;;;;;7.63;7.01;;;;;;;14.95;64.93;100406.77;448861;115;923055;-75
2021/06/01 03:54:18;;;;;;;6.83;6.31;;;;;;;14.96;64.96;100408.45;456108;114;922884;-75
2021/06/01 03:55:22;;;;;;;7.81;7.20;;;;;;;14.95;64.97;100400.45;455379;114;932034;-76
2021/06/01 03:56:28;;;;;;;8.65;6.51;;;;;;;14.96;64.96;100408.45;455581;114;923319;-73
2021/06/01 03:57:31;;;;;;;8.26;7.65;;;;;;;14.96;64.95;100399.37;454282;114;924061;-72
2021/06/01 03:58:36;;;;;;;8.31;7.75;;;;;;;14.94;65.05;100415.28;450351;116;927092;-72
2021/06/01 04:00:09;;;;;;;7.49;6.78;;;;;;;14.93;65.01;100410.87;456253;114;923910;-69
2021/06/01 04:01:30;;;;;;;7.19;6.66;;;;;;;14.92;64.99;100409.19;447112;116;924033;-67
2021/06/01 04:02:33;;;;;;;9.48;8.78;;;;;;;14.88;65.04;100411.61;447782;115;923344;-73
2021/06/01 04:03:41;;;;;;;9.04;8.36;;;;;;;14.88;65.16;100408.03;454653;114;924099;-72
2021/06/01 04:04:45;;;;;;;8.15;7.52;;;;;;;14.89;65.16;100416.00;455444;114;924010;-74
2021/06/01 04:05:49;;;;;;;7.89;7.16;;;;;;;14.91;65.21;100415.76;455780;114;922774;-77
2021/06/01 04:06:52;;;;;;;7.59;7.02;;;;;;;14.91;65.13;100413.84;449616;116;930655;-74
2021/06/01 04:07:56;;;;;;;7.76;7.10;;;;;;;14.90;65.04;100414.92;453385;116;922825;-74
2021/06/01 04:09:00;;;;;;;7.58;7.04;;;;;;;14.91;65.00;100413.02;452529;116;923097;-77
2021/06/01 04:10:06;;;;;;;7.25;6.65;;;;;;;14.91;65.07;100402.87;439437;119;922766;-77
2021/06/01 04:11:09;;;;;;;7.24;6.69;;;;;;;14.93;65.04;100399.88;440005;118;923952;-69
2021/06/01 04:12:13;;;;;;;7.56;6.91;;;;;;;14.94;65.03;100398.81;445240;118;925224;-71
2021/06/01 04:13:18;;;;;;;8.02;7.29;;;;;;;14.94;64.90;100398.81;438972;119;922691;-68
2021/06/01 04:14:22;;;;;;;7.36;6.76;;;;;;;14.92;64.85;100403.70;439396;117;930501;-68
2021/06/01 04:15:26;;;;;;;6.96;6.36;;;;;;;14.92;64.90;100409.19;445145;118;925848;-66
2021/06/01 04:16:30;;;;;;;7.79;7.17;;;;;;;14.92;65.01;100409.19;445404;118;925300;-68
2021/06/01 04:17:34;;;;;;;7.34;6.75;;;;;;;14.91;64.93;100402.03;445697;118;922636;-67
2021/06/01 04:18:41;;;;;;;7.56;6.97;;;;;;;14.91;64.89;100413.02;445362;117;923054;-69
2021/06/01 04:19:44;;;;;;;7.15;6.54;;;;;;;14.90;65.05;100408.59;445624;117;923817;-68
2021/06/01 04:20:51;;;;;;;7.08;6.48;;;;;;;14.89;65.13;100413.25;445881;118;923741;-76
2021/06/01 04:21:54;;;;;;;7.21;6.66;;;;;;;14.90;65.22;100397.61;445417;117;923840;-72
2021/06/01 04:22:58;;;;;;;8.23;7.53;;;;;;;14.92;65.04;100400.95;446378;117;925152;-71
2021/06/01 04:24:02;;;;;;;8.11;7.36;;;;;;;14.91;64.98;100405.61;435866;120;924072;-70
2021/06/01 04:25:07;;;;;;;8.71;7.63;;;;;;;14.91;65.05;100396.55;438355;118;930454;-71
2021/06/01 04:26:13;;;;;;;9.78;8.96;;;;;;;14.90;65.04;100392.96;442614;118;922666;-72
2021/06/01 04:27:16;;;;;;;8.90;8.16;;;;;;;14.91;65.01;100388.30;444116;118;922581;-72
2021/06/01 04:28:20;;;;;;;9.03;8.29;;;;;;;14.90;64.97;100383.89;445251;117;922622;-69
2021/06/01 04:29:24;;;;;;;8.05;7.36;;;;;;;14.90;64.90;100386.63;444470;119;930469;-71
2021/06/01 04:30:29;;;;;;;8.54;7.16;;;;;;;14.88;64.90;100375.92;444542;118;922674;-71
2021/06/01 04:31:35;;;;;;;7.33;6.74;;;;;;;14.88;64.92;100373.18;435386;120;923066;-71
2021/06/01 04:32:39;;;;;;;7.61;6.89;;;;;;;14.87;64.95;100370.67;437660;118;922704;-72
2021/06/01 04:33:43;;;;;;;7.35;6.74;;;;;;;14.87;64.88;100363.27;444233;119;922651;-70
2021/06/01 04:34:47;;;;;;;8.17;7.44;;;;;;;14.87;64.87;100359.70;442800;119;922330;-69
2021/06/01 04:35:51;;;;;;;7.71;7.07;;;;;;;14.87;64.89;100365.19;443004;118;923518;-70
2021/06/01 04:36:54;;;;;;;7.12;6.56;;;;;;;14.86;64.83;100352.53;444544;118;930549;-68
2021/06/01 04:37:58;;;;;;;6.64;6.06;;;;;;;14.84;64.84;100362.91;445033;118;923087;-70
2021/06/01 04:39:02;;;;;;;6.60;6.09;;;;;;;14.81;65.01;100355.19;444625;118;930642;-71
2021/06/01 04:40:10;;;;;;;7.24;6.16;;;;;;;14.77;64.92;100357.61;445640;117;922644;-69
2021/06/01 04:41:13;;;;;;;7.14;6.54;;;;;;;14.75;65.02;100358.92;445248;118;922563;-72
2021/06/01 04:42:17;;;;;;;7.94;7.23;;;;;;;14.73;64.98;100361.91;438904;120;923133;-70
2021/06/01 04:43:21;;;;;;;7.24;6.73;;;;;;;14.71;64.92;100363.25;437809;118;922653;-70
2021/06/01 04:44:24;;;;;;;7.06;6.41;;;;;;;14.68;65.09;100377.45;444770;118;922986;-70
2021/06/01 04:45:27;;;;;;;8.08;7.29;;;;;;;14.67;65.19;100378.52;445143;117;930544;-68
2021/06/01 04:46:31;;;;;;;6.38;5.86;;;;;;;14.66;65.23;100380.47;446065;118;922600;-69
2021/06/01 04:47:36;;;;;;;9.48;7.12;;;;;;;14.68;65.26;100382.94;445212;117;924171;-70
2021/06/01 04:48:39;;;;;;;7.18;6.58;;;;;;;14.70;65.31;100383.53;444038;118;923030;-70
2021/06/01 04:49:43;;;;;;;6.61;5.98;;;;;;;14.72;65.24;100387.68;444714;118;924064;-69
2021/06/01 04:50:48;;;;;;;6.64;6.07;;;;;;;14.74;65.16;100384.70;445773;118;923898;-67
2021/06/01 04:51:55;;;;;;;7.03;6.41;;;;;;;14.75;65.10;100386.37;444253;118;923669;-71
2021/06/01 04:52:59;;;;;;;7.18;6.41;;;;;;;14.74;65.12;100387.44;445201;118;924346;-76
2021/06/01 04:54:03;;;;;;;7.52;6.89;;;;;;;14.74;65.11;100381.95;445491;118;925420;-73
2021/06/01 04:55:10;;;;;;;7.81;6.40;;;;;;;14.73;65.09;100383.03;445946;118;924120;-75
2021/06/01 04:56:14;;;;;;;8.24;6.88;;;;;;;14.72;65.11;100389.63;445385;118;927184;-73
2021/06/01 04:57:19;;;;;;;8.09;7.39;;;;;;;14.72;65.15;100379.45;445375;118;924111;-74
2021/06/01 04:58:23;;;;;;;7.31;6.71;;;;;;;14.72;65.19;100384.94;445178;118;926585;-72
2021/06/01 04:59:26;;;;;;;6.79;6.28;;;;;;;14.72;65.17;100382.20;444923;118;923770;-72
2021/06/01 05:00:31;;;;;;;7.49;6.70;;;;;;;14.70;65.23;100392.60;445796;117;923298;-69
2021/06/01 05:01:35;;;;;;;7.68;7.02;;;;;;;14.71;65.29;100387.95;445744;117;922840;-72
2021/06/01 05:02:39;;;;;;;7.35;6.48;;;;;;;14.69;65.34;100401.08;445780;118;923234;-69
2021/06/01 05:03:42;;;;;;;7.47;6.66;;;;;;;14.68;65.47;100396.66;446521;118;922413;-71
2021/06/01 05:04:48;;;;;;;10.22;7.60;;;;;;;14.67;65.49;100404.06;445709;118;922227;-74
2021/06/01 05:05:51;;;;;;;8.61;7.86;;;;;;;14.68;65.59;100407.64;446444;118;923306;-73
2021/06/01 05:06:58;;;;;;;7.42;6.82;;;;;;;14.68;65.70;100405.73;445282;118;922747;-75
2021/06/01 05:08:03;;;;;;;7.71;7.04;;;;;;;14.69;65.58;100401.08;445645;117;924287;-67
2021/06/01 05:09:07;;;;;;;7.49;6.75;;;;;;;14.69;65.79;100417.55;441070;118;924356;-70
2021/06/01 05:10:11;;;;;;;7.39;6.73;;;;;;;14.70;65.87;100414.56;442194;118;932756;-72
2021/06/01 05:11:17;;;;;;;6.62;6.03;;;;;;;14.72;65.93;100414.32;446667;116;924101;-69